sensor_id;sensor_type;location;lat;lon;timestamp;P1;durP1;ratioP1;P2;durP2;ratioP2
2972;SDS011;1496;51.404;7.232;2022-12-07T00:01:41;45.47;;;29.10;;
2972;SDS011;1496;51.404;7.232;2022-12-07T00:04:10;45.27;;;29.37;;
2972;SDS011;1496;51.404;7.232;2022-12-07T00:06:41;43.77;;;28.80;;
2972;SDS011;1496;51.404;7.232;2022-12-07T00:09:11;43.73;;;29.17;;
2972;SDS011;1496;51.404;7.232;2022-12-07T00:11:38;43.73;;;29.60;;
2972;SDS011;1496;51.404;7.232;2022-12-07T00:14:05;44.50;;;30.27;;
2972;SDS011;1496;51.404;7.232;2022-12-07T00:16:33;40.50;;;27.60;;
2972;SDS011;1496;51.404;7.232;2022-12-07T00:18:59;44.53;;;26.37;;
2972;SDS011;1496;51.404;7.232;2022-12-07T00:21:29;39.27;;;26.33;;
2972;SDS011;1496;51.404;7.232;2022-12-07T00:23:56;47.13;;;30.50;;
2972;SDS011;1496;51.404;7.232;2022-12-07T00:26:30;42.67;;;28.70;;
2972;SDS011;1496;51.404;7.232;2022-12-07T00:29:04;38.63;;;26.80;;
2972;SDS011;1496;51.404;7.232;2022-12-07T00:31:35;45.33;;;27.67;;
2972;SDS011;1496;51.404;7.232;2022-12-07T00:34:04;38.90;;;27.70;;
2972;SDS011;1496;51.404;7.232;2022-12-07T00:36:31;45.70;;;31.67;;
2972;SDS011;1496;51.404;7.232;2022-12-07T00:38:58;39.60;;;27.67;;
2972;SDS011;1496;51.404;7.232;2022-12-07T00:41:24;40.40;;;27.50;;
2972;SDS011;1496;51.404;7.232;2022-12-07T00:43:51;44.97;;;31.00;;
2972;SDS011;1496;51.404;7.232;2022-12-07T00:46:19;45.53;;;28.57;;
2972;SDS011;1496;51.404;7.232;2022-12-07T00:48:50;42.50;;;28.50;;
2972;SDS011;1496;51.404;7.232;2022-12-07T00:51:17;41.43;;;31.43;;
2972;SDS011;1496;51.404;7.232;2022-12-07T00:53:44;46.10;;;31.03;;
2972;SDS011;1496;51.404;7.232;2022-12-07T00:56:31;46.57;;;29.80;;
2972;SDS011;1496;51.404;7.232;2022-12-07T00:58:57;43.27;;;29.33;;
2972;SDS011;1496;51.404;7.232;2022-12-07T01:01:25;46.13;;;28.90;;
2972;SDS011;1496;51.404;7.232;2022-12-07T01:04:03;49.00;;;31.23;;
2972;SDS011;1496;51.404;7.232;2022-12-07T01:06:56;45.97;;;31.40;;
2972;SDS011;1496;51.404;7.232;2022-12-07T01:09:22;47.13;;;29.83;;
2972;SDS011;1496;51.404;7.232;2022-12-07T01:11:48;48.07;;;31.00;;
2972;SDS011;1496;51.404;7.232;2022-12-07T01:14:14;49.80;;;32.30;;
2972;SDS011;1496;51.404;7.232;2022-12-07T01:16:39;48.43;;;30.07;;
2972;SDS011;1496;51.404;7.232;2022-12-07T01:19:05;41.97;;;28.50;;
2972;SDS011;1496;51.404;7.232;2022-12-07T01:21:31;46.77;;;30.77;;
2972;SDS011;1496;51.404;7.232;2022-12-07T01:24:00;50.03;;;30.73;;
2972;SDS011;1496;51.404;7.232;2022-12-07T01:26:26;45.97;;;30.03;;
2972;SDS011;1496;51.404;7.232;2022-12-07T01:28:52;46.53;;;28.20;;
2972;SDS011;1496;51.404;7.232;2022-12-07T01:31:25;50.63;;;32.80;;
2972;SDS011;1496;51.404;7.232;2022-12-07T01:34:03;46.10;;;30.60;;
2972;SDS011;1496;51.404;7.232;2022-12-07T01:36:29;56.80;;;31.00;;
2972;SDS011;1496;51.404;7.232;2022-12-07T01:38:58;52.10;;;32.17;;
2972;SDS011;1496;51.404;7.232;2022-12-07T01:41:29;51.20;;;32.90;;
2972;SDS011;1496;51.404;7.232;2022-12-07T01:44:14;53.27;;;31.53;;
2972;SDS011;1496;51.404;7.232;2022-12-07T01:46:41;49.67;;;33.20;;
2972;SDS011;1496;51.404;7.232;2022-12-07T01:49:10;49.30;;;33.13;;
2972;SDS011;1496;51.404;7.232;2022-12-07T01:51:40;52.47;;;32.50;;
2972;SDS011;1496;51.404;7.232;2022-12-07T01:54:09;49.07;;;32.67;;
2972;SDS011;1496;51.404;7.232;2022-12-07T01:56:36;51.93;;;32.60;;
2972;SDS011;1496;51.404;7.232;2022-12-07T01:59:05;47.10;;;32.50;;
2972;SDS011;1496;51.404;7.232;2022-12-07T02:01:31;49.87;;;32.27;;
2972;SDS011;1496;51.404;7.232;2022-12-07T02:03:56;55.93;;;37.00;;
2972;SDS011;1496;51.404;7.232;2022-12-07T02:06:24;48.77;;;32.53;;
2972;SDS011;1496;51.404;7.232;2022-12-07T02:08:50;51.53;;;33.27;;
2972;SDS011;1496;51.404;7.232;2022-12-07T02:11:16;53.90;;;34.10;;
2972;SDS011;1496;51.404;7.232;2022-12-07T02:13:43;49.77;;;34.23;;
2972;SDS011;1496;51.404;7.232;2022-12-07T02:16:23;55.30;;;32.10;;
2972;SDS011;1496;51.404;7.232;2022-12-07T02:19:08;52.83;;;33.37;;
2972;SDS011;1496;51.404;7.232;2022-12-07T02:22:15;57.77;;;33.57;;
2972;SDS011;1496;51.404;7.232;2022-12-07T02:25:05;53.77;;;31.77;;
2972;SDS011;1496;51.404;7.232;2022-12-07T02:30:33;52.70;;;33.97;;
2972;SDS011;1496;51.404;7.232;2022-12-07T02:33:05;59.83;;;35.10;;
2972;SDS011;1496;51.404;7.232;2022-12-07T02:35:41;56.57;;;34.60;;
2972;SDS011;1496;51.404;7.232;2022-12-07T02:41:04;51.90;;;33.43;;
2972;SDS011;1496;51.404;7.232;2022-12-07T02:43:41;58.17;;;35.13;;
2972;SDS011;1496;51.404;7.232;2022-12-07T02:46:17;62.00;;;36.97;;
2972;SDS011;1496;51.404;7.232;2022-12-07T02:48:53;56.60;;;35.13;;
2972;SDS011;1496;51.404;7.232;2022-12-07T02:51:20;56.17;;;34.13;;
2972;SDS011;1496;51.404;7.232;2022-12-07T02:53:47;57.13;;;34.93;;
2972;SDS011;1496;51.404;7.232;2022-12-07T02:59:02;58.53;;;34.90;;
2972;SDS011;1496;51.404;7.232;2022-12-07T03:08:11;58.93;;;34.07;;
2972;SDS011;1496;51.404;7.232;2022-12-07T03:13:22;66.33;;;34.93;;
2972;SDS011;1496;51.404;7.232;2022-12-07T03:18:40;57.53;;;34.47;;
2972;SDS011;1496;51.404;7.232;2022-12-07T03:21:38;53.53;;;33.23;;
2972;SDS011;1496;51.404;7.232;2022-12-07T03:24:08;58.70;;;35.00;;
2972;SDS011;1496;51.404;7.232;2022-12-07T03:26:38;57.43;;;34.07;;
2972;SDS011;1496;51.404;7.232;2022-12-07T03:29:20;57.93;;;34.60;;
2972;SDS011;1496;51.404;7.232;2022-12-07T03:32:12;58.60;;;34.47;;
2972;SDS011;1496;51.404;7.232;2022-12-07T03:34:59;56.87;;;34.37;;
2972;SDS011;1496;51.404;7.232;2022-12-07T03:37:37;54.40;;;34.30;;
2972;SDS011;1496;51.404;7.232;2022-12-07T03:40:11;54.07;;;33.23;;
2972;SDS011;1496;51.404;7.232;2022-12-07T03:42:45;50.80;;;32.33;;
2972;SDS011;1496;51.404;7.232;2022-12-07T03:45:11;49.60;;;30.27;;
2972;SDS011;1496;51.404;7.232;2022-12-07T03:47:42;55.60;;;30.97;;
2972;SDS011;1496;51.404;7.232;2022-12-07T03:52:54;53.50;;;32.03;;
2972;SDS011;1496;51.404;7.232;2022-12-07T03:55:25;52.13;;;31.50;;
2972;SDS011;1496;51.404;7.232;2022-12-07T03:57:56;51.73;;;31.17;;
2972;SDS011;1496;51.404;7.232;2022-12-07T04:00:25;48.10;;;30.97;;
2972;SDS011;1496;51.404;7.232;2022-12-07T04:02:52;48.50;;;29.70;;
2972;SDS011;1496;51.404;7.232;2022-12-07T04:05:18;57.07;;;32.33;;
2972;SDS011;1496;51.404;7.232;2022-12-07T04:07:44;50.03;;;30.77;;
2972;SDS011;1496;51.404;7.232;2022-12-07T04:10:10;50.37;;;28.53;;
2972;SDS011;1496;51.404;7.232;2022-12-07T04:12:36;54.30;;;32.00;;
2972;SDS011;1496;51.404;7.232;2022-12-07T04:15:02;50.80;;;31.23;;
2972;SDS011;1496;51.404;7.232;2022-12-07T04:17:28;56.30;;;30.97;;
2972;SDS011;1496;51.404;7.232;2022-12-07T04:19:54;50.13;;;31.07;;
2972;SDS011;1496;51.404;7.232;2022-12-07T04:22:20;58.33;;;31.03;;
2972;SDS011;1496;51.404;7.232;2022-12-07T04:24:45;58.00;;;30.70;;
2972;SDS011;1496;51.404;7.232;2022-12-07T04:27:11;52.33;;;30.67;;
2972;SDS011;1496;51.404;7.232;2022-12-07T04:29:37;51.00;;;29.00;;
2972;SDS011;1496;51.404;7.232;2022-12-07T04:32:03;59.10;;;30.90;;
2972;SDS011;1496;51.404;7.232;2022-12-07T04:34:28;48.33;;;30.07;;
2972;SDS011;1496;51.404;7.232;2022-12-07T04:36:54;52.93;;;29.33;;
2972;SDS011;1496;51.404;7.232;2022-12-07T04:39:21;55.40;;;27.97;;
2972;SDS011;1496;51.404;7.232;2022-12-07T04:41:52;47.70;;;29.00;;
2972;SDS011;1496;51.404;7.232;2022-12-07T04:44:18;51.53;;;30.80;;
2972;SDS011;1496;51.404;7.232;2022-12-07T04:46:44;41.83;;;26.03;;
2972;SDS011;1496;51.404;7.232;2022-12-07T04:49:11;55.50;;;28.00;;
2972;SDS011;1496;51.404;7.232;2022-12-07T04:51:38;51.67;;;29.10;;
2972;SDS011;1496;51.404;7.232;2022-12-07T04:54:04;59.17;;;28.70;;
2972;SDS011;1496;51.404;7.232;2022-12-07T04:56:29;42.17;;;25.97;;
2972;SDS011;1496;51.404;7.232;2022-12-07T04:58:55;44.00;;;26.40;;
2972;SDS011;1496;51.404;7.232;2022-12-07T05:01:21;45.80;;;26.63;;
2972;SDS011;1496;51.404;7.232;2022-12-07T05:03:47;49.00;;;29.37;;
2972;SDS011;1496;51.404;7.232;2022-12-07T05:06:14;45.97;;;24.80;;
2972;SDS011;1496;51.404;7.232;2022-12-07T05:08:40;43.43;;;24.70;;
2972;SDS011;1496;51.404;7.232;2022-12-07T05:11:07;42.13;;;25.00;;
2972;SDS011;1496;51.404;7.232;2022-12-07T05:13:33;45.40;;;26.17;;
2972;SDS011;1496;51.404;7.232;2022-12-07T05:15:59;48.50;;;25.83;;
2972;SDS011;1496;51.404;7.232;2022-12-07T05:18:25;46.27;;;25.27;;
2972;SDS011;1496;51.404;7.232;2022-12-07T05:20:51;42.97;;;26.33;;
2972;SDS011;1496;51.404;7.232;2022-12-07T05:23:17;42.00;;;25.27;;
2972;SDS011;1496;51.404;7.232;2022-12-07T05:25:43;47.63;;;27.50;;
2972;SDS011;1496;51.404;7.232;2022-12-07T05:28:09;45.83;;;24.70;;
2972;SDS011;1496;51.404;7.232;2022-12-07T05:30:35;45.40;;;24.30;;
2972;SDS011;1496;51.404;7.232;2022-12-07T05:33:01;40.87;;;24.43;;
2972;SDS011;1496;51.404;7.232;2022-12-07T05:35:28;36.80;;;23.03;;
2972;SDS011;1496;51.404;7.232;2022-12-07T05:38:00;36.90;;;25.37;;
2972;SDS011;1496;51.404;7.232;2022-12-07T05:40:34;39.57;;;24.83;;
2972;SDS011;1496;51.404;7.232;2022-12-07T05:42:59;50.67;;;25.80;;
2972;SDS011;1496;51.404;7.232;2022-12-07T05:45:25;46.23;;;25.63;;
2972;SDS011;1496;51.404;7.232;2022-12-07T05:47:50;38.80;;;23.40;;
2972;SDS011;1496;51.404;7.232;2022-12-07T05:50:16;45.70;;;25.40;;
2972;SDS011;1496;51.404;7.232;2022-12-07T05:52:42;41.40;;;25.47;;
2972;SDS011;1496;51.404;7.232;2022-12-07T05:55:08;46.27;;;27.10;;
2972;SDS011;1496;51.404;7.232;2022-12-07T05:57:34;41.17;;;24.97;;
2972;SDS011;1496;51.404;7.232;2022-12-07T06:00:00;44.83;;;26.23;;
2972;SDS011;1496;51.404;7.232;2022-12-07T06:02:26;41.53;;;23.83;;
2972;SDS011;1496;51.404;7.232;2022-12-07T06:04:52;41.70;;;25.47;;
2972;SDS011;1496;51.404;7.232;2022-12-07T06:07:17;47.10;;;26.67;;
2972;SDS011;1496;51.404;7.232;2022-12-07T06:09:43;44.60;;;25.20;;
2972;SDS011;1496;51.404;7.232;2022-12-07T06:12:09;49.80;;;29.27;;
2972;SDS011;1496;51.404;7.232;2022-12-07T06:14:55;48.37;;;25.00;;
2972;SDS011;1496;51.404;7.232;2022-12-07T06:17:20;47.73;;;25.70;;
2972;SDS011;1496;51.404;7.232;2022-12-07T06:19:46;40.17;;;24.70;;
2972;SDS011;1496;51.404;7.232;2022-12-07T06:22:12;42.70;;;26.03;;
2972;SDS011;1496;51.404;7.232;2022-12-07T06:24:38;36.77;;;25.93;;
2972;SDS011;1496;51.404;7.232;2022-12-07T06:27:04;40.80;;;24.30;;
2972;SDS011;1496;51.404;7.232;2022-12-07T06:29:30;37.27;;;25.37;;
2972;SDS011;1496;51.404;7.232;2022-12-07T06:31:56;45.17;;;24.20;;
2972;SDS011;1496;51.404;7.232;2022-12-07T06:34:22;37.20;;;22.43;;
2972;SDS011;1496;51.404;7.232;2022-12-07T06:36:49;38.07;;;23.73;;
2972;SDS011;1496;51.404;7.232;2022-12-07T06:39:18;42.93;;;23.70;;
2972;SDS011;1496;51.404;7.232;2022-12-07T06:41:45;35.83;;;22.60;;
2972;SDS011;1496;51.404;7.232;2022-12-07T06:44:11;40.90;;;21.83;;
2972;SDS011;1496;51.404;7.232;2022-12-07T06:46:37;45.40;;;23.50;;
2972;SDS011;1496;51.404;7.232;2022-12-07T06:49:03;39.87;;;22.17;;
2972;SDS011;1496;51.404;7.232;2022-12-07T06:51:30;36.57;;;23.40;;
2972;SDS011;1496;51.404;7.232;2022-12-07T06:53:56;35.37;;;20.70;;
2972;SDS011;1496;51.404;7.232;2022-12-07T06:56:22;34.40;;;21.63;;
2972;SDS011;1496;51.404;7.232;2022-12-07T06:58:49;32.97;;;21.93;;
2972;SDS011;1496;51.404;7.232;2022-12-07T07:01:15;42.80;;;22.17;;
2972;SDS011;1496;51.404;7.232;2022-12-07T07:03:43;30.63;;;18.00;;
2972;SDS011;1496;51.404;7.232;2022-12-07T07:06:09;26.70;;;17.97;;
2972;SDS011;1496;51.404;7.232;2022-12-07T07:08:36;27.13;;;17.70;;
2972;SDS011;1496;51.404;7.232;2022-12-07T07:11:03;30.87;;;19.40;;
2972;SDS011;1496;51.404;7.232;2022-12-07T07:13:29;24.27;;;17.70;;
2972;SDS011;1496;51.404;7.232;2022-12-07T07:15:55;34.70;;;17.63;;
2972;SDS011;1496;51.404;7.232;2022-12-07T07:18:22;30.17;;;19.40;;
2972;SDS011;1496;51.404;7.232;2022-12-07T07:20:49;32.20;;;17.33;;
2972;SDS011;1496;51.404;7.232;2022-12-07T07:23:16;31.90;;;19.17;;
2972;SDS011;1496;51.404;7.232;2022-12-07T07:25:41;34.30;;;21.00;;
2972;SDS011;1496;51.404;7.232;2022-12-07T07:28:07;33.80;;;18.93;;
2972;SDS011;1496;51.404;7.232;2022-12-07T07:30:33;33.13;;;19.77;;
2972;SDS011;1496;51.404;7.232;2022-12-07T07:32:59;28.83;;;17.27;;
2972;SDS011;1496;51.404;7.232;2022-12-07T07:35:26;28.23;;;18.53;;
2972;SDS011;1496;51.404;7.232;2022-12-07T07:37:53;31.90;;;19.60;;
2972;SDS011;1496;51.404;7.232;2022-12-07T07:40:19;32.23;;;18.97;;
2972;SDS011;1496;51.404;7.232;2022-12-07T07:42:51;35.80;;;19.50;;
2972;SDS011;1496;51.404;7.232;2022-12-07T07:45:18;30.07;;;17.83;;
2972;SDS011;1496;51.404;7.232;2022-12-07T07:47:46;35.33;;;18.50;;
2972;SDS011;1496;51.404;7.232;2022-12-07T07:50:12;25.50;;;16.53;;
2972;SDS011;1496;51.404;7.232;2022-12-07T07:52:38;23.83;;;14.97;;
2972;SDS011;1496;51.404;7.232;2022-12-07T07:55:04;21.03;;;15.33;;
2972;SDS011;1496;51.404;7.232;2022-12-07T07:57:32;26.40;;;15.30;;
2972;SDS011;1496;51.404;7.232;2022-12-07T07:59:58;23.63;;;15.60;;
2972;SDS011;1496;51.404;7.232;2022-12-07T08:02:23;22.93;;;14.80;;
2972;SDS011;1496;51.404;7.232;2022-12-07T08:04:49;23.20;;;14.00;;
2972;SDS011;1496;51.404;7.232;2022-12-07T08:07:15;27.00;;;15.93;;
2972;SDS011;1496;51.404;7.232;2022-12-07T08:09:40;21.47;;;13.27;;
2972;SDS011;1496;51.404;7.232;2022-12-07T08:12:06;25.53;;;13.73;;
2972;SDS011;1496;51.404;7.232;2022-12-07T08:14:32;28.00;;;15.00;;
2972;SDS011;1496;51.404;7.232;2022-12-07T08:16:59;20.70;;;13.53;;
2972;SDS011;1496;51.404;7.232;2022-12-07T08:19:25;23.57;;;15.00;;
2972;SDS011;1496;51.404;7.232;2022-12-07T08:21:50;22.10;;;15.10;;
2972;SDS011;1496;51.404;7.232;2022-12-07T08:24:16;27.43;;;15.20;;
2972;SDS011;1496;51.404;7.232;2022-12-07T08:26:42;27.67;;;15.00;;
2972;SDS011;1496;51.404;7.232;2022-12-07T08:29:08;26.60;;;16.40;;
2972;SDS011;1496;51.404;7.232;2022-12-07T08:31:34;25.07;;;15.50;;
2972;SDS011;1496;51.404;7.232;2022-12-07T08:34:00;31.27;;;16.90;;
2972;SDS011;1496;51.404;7.232;2022-12-07T08:36:26;26.27;;;16.70;;
2972;SDS011;1496;51.404;7.232;2022-12-07T08:38:51;26.50;;;15.60;;
2972;SDS011;1496;51.404;7.232;2022-12-07T08:41:18;21.00;;;14.50;;
2972;SDS011;1496;51.404;7.232;2022-12-07T08:43:43;32.47;;;17.30;;
2972;SDS011;1496;51.404;7.232;2022-12-07T08:46:10;19.67;;;14.07;;
2972;SDS011;1496;51.404;7.232;2022-12-07T08:48:53;21.70;;;13.83;;
2972;SDS011;1496;51.404;7.232;2022-12-07T08:51:24;28.03;;;14.33;;
2972;SDS011;1496;51.404;7.232;2022-12-07T08:53:50;26.60;;;14.83;;
2972;SDS011;1496;51.404;7.232;2022-12-07T08:56:18;19.93;;;13.90;;
2972;SDS011;1496;51.404;7.232;2022-12-07T08:58:45;23.30;;;14.57;;
2972;SDS011;1496;51.404;7.232;2022-12-07T09:01:10;26.83;;;15.17;;
2972;SDS011;1496;51.404;7.232;2022-12-07T09:03:36;19.00;;;12.70;;
2972;SDS011;1496;51.404;7.232;2022-12-07T09:06:02;20.80;;;13.80;;
2972;SDS011;1496;51.404;7.232;2022-12-07T09:08:34;19.00;;;14.30;;
2972;SDS011;1496;51.404;7.232;2022-12-07T09:11:04;20.70;;;12.90;;
2972;SDS011;1496;51.404;7.232;2022-12-07T09:13:29;27.77;;;12.67;;
2972;SDS011;1496;51.404;7.232;2022-12-07T09:15:55;20.27;;;11.90;;
2972;SDS011;1496;51.404;7.232;2022-12-07T09:18:21;17.37;;;12.80;;
2972;SDS011;1496;51.404;7.232;2022-12-07T09:20:46;21.70;;;14.23;;
2972;SDS011;1496;51.404;7.232;2022-12-07T09:23:12;18.37;;;11.77;;
2972;SDS011;1496;51.404;7.232;2022-12-07T09:25:37;22.00;;;11.77;;
2972;SDS011;1496;51.404;7.232;2022-12-07T09:28:03;18.57;;;12.83;;
2972;SDS011;1496;51.404;7.232;2022-12-07T09:30:29;21.77;;;12.47;;
2972;SDS011;1496;51.404;7.232;2022-12-07T09:32:55;26.13;;;13.13;;
2972;SDS011;1496;51.404;7.232;2022-12-07T09:35:22;20.07;;;12.17;;
2972;SDS011;1496;51.404;7.232;2022-12-07T09:37:50;20.60;;;12.40;;
2972;SDS011;1496;51.404;7.232;2022-12-07T09:40:16;16.50;;;11.63;;
2972;SDS011;1496;51.404;7.232;2022-12-07T09:42:44;26.83;;;15.13;;
2972;SDS011;1496;51.404;7.232;2022-12-07T09:45:15;22.40;;;14.33;;
2972;SDS011;1496;51.404;7.232;2022-12-07T09:47:46;26.50;;;14.63;;
2972;SDS011;1496;51.404;7.232;2022-12-07T09:50:13;24.03;;;15.17;;
2972;SDS011;1496;51.404;7.232;2022-12-07T09:52:42;33.43;;;17.07;;
2972;SDS011;1496;51.404;7.232;2022-12-07T09:55:11;27.00;;;15.40;;
2972;SDS011;1496;51.404;7.232;2022-12-07T09:57:38;27.13;;;17.47;;
2972;SDS011;1496;51.404;7.232;2022-12-07T10:00:06;23.40;;;15.63;;
2972;SDS011;1496;51.404;7.232;2022-12-07T10:02:44;23.87;;;16.00;;
2972;SDS011;1496;51.404;7.232;2022-12-07T10:05:19;39.23;;;18.77;;
2972;SDS011;1496;51.404;7.232;2022-12-07T10:07:51;30.40;;;16.33;;
2972;SDS011;1496;51.404;7.232;2022-12-07T10:10:23;28.00;;;16.87;;
2972;SDS011;1496;51.404;7.232;2022-12-07T10:12:52;36.90;;;16.37;;
2972;SDS011;1496;51.404;7.232;2022-12-07T10:15:20;22.07;;;14.33;;
2972;SDS011;1496;51.404;7.232;2022-12-07T10:17:49;22.93;;;15.13;;
2972;SDS011;1496;51.404;7.232;2022-12-07T10:22:54;18.60;;;14.23;;
2972;SDS011;1496;51.404;7.232;2022-12-07T10:25:25;19.73;;;13.13;;
2972;SDS011;1496;51.404;7.232;2022-12-07T10:28:12;17.53;;;12.37;;
2972;SDS011;1496;51.404;7.232;2022-12-07T10:35:59;24.03;;;12.33;;
2972;SDS011;1496;51.404;7.232;2022-12-07T10:38:26;20.90;;;12.33;;
2972;SDS011;1496;51.404;7.232;2022-12-07T10:41:02;17.70;;;10.50;;
2972;SDS011;1496;51.404;7.232;2022-12-07T10:43:32;28.83;;;13.03;;
2972;SDS011;1496;51.404;7.232;2022-12-07T10:48:52;18.37;;;13.00;;
2972;SDS011;1496;51.404;7.232;2022-12-07T10:54:12;18.50;;;10.77;;
2972;SDS011;1496;51.404;7.232;2022-12-07T10:57:07;24.57;;;10.47;;
2972;SDS011;1496;51.404;7.232;2022-12-07T11:08:34;12.30;;;7.50;;
2972;SDS011;1496;51.404;7.232;2022-12-07T11:10:52;13.10;;;8.07;;
2972;SDS011;1496;51.404;7.232;2022-12-07T11:13:52;10.43;;;7.77;;
2972;SDS011;1496;51.404;7.232;2022-12-07T11:21:24;12.33;;;6.90;;
2972;SDS011;1496;51.404;7.232;2022-12-07T11:24:32;16.20;;;6.30;;
2972;SDS011;1496;51.404;7.232;2022-12-07T11:27:05;11.77;;;6.67;;
2972;SDS011;1496;51.404;7.232;2022-12-07T11:38:28;14.80;;;8.30;;
2972;SDS011;1496;51.404;7.232;2022-12-07T11:41:03;14.43;;;9.13;;
2972;SDS011;1496;51.404;7.232;2022-12-07T11:46:25;12.57;;;8.90;;
2972;SDS011;1496;51.404;7.232;2022-12-07T11:48:59;12.70;;;9.27;;
2972;SDS011;1496;51.404;7.232;2022-12-07T11:51:35;13.20;;;10.43;;
2972;SDS011;1496;51.404;7.232;2022-12-07T11:54:17;15.90;;;11.03;;
2972;SDS011;1496;51.404;7.232;2022-12-07T11:56:51;15.53;;;11.13;;
2972;SDS011;1496;51.404;7.232;2022-12-07T12:02:27;14.90;;;10.47;;
2972;SDS011;1496;51.404;7.232;2022-12-07T12:07:46;14.47;;;10.17;;
2972;SDS011;1496;51.404;7.232;2022-12-07T12:10:54;22.80;;;11.47;;
2972;SDS011;1496;51.404;7.232;2022-12-07T12:16:09;18.63;;;11.30;;
2972;SDS011;1496;51.404;7.232;2022-12-07T12:19:04;20.13;;;10.87;;
2972;SDS011;1496;51.404;7.232;2022-12-07T12:21:48;13.73;;;9.67;;
2972;SDS011;1496;51.404;7.232;2022-12-07T12:24:22;19.80;;;10.77;;
2972;SDS011;1496;51.404;7.232;2022-12-07T12:26:57;16.73;;;10.27;;
2972;SDS011;1496;51.404;7.232;2022-12-07T12:29:31;17.60;;;9.47;;
2972;SDS011;1496;51.404;7.232;2022-12-07T12:42:49;13.00;;;6.70;;
2972;SDS011;1496;51.404;7.232;2022-12-07T12:45:23;21.43;;;8.53;;
2972;SDS011;1496;51.404;7.232;2022-12-07T12:48:03;9.33;;;7.60;;
2972;SDS011;1496;51.404;7.232;2022-12-07T12:50:34;12.37;;;6.30;;
2972;SDS011;1496;51.404;7.232;2022-12-07T12:59:15;9.50;;;6.83;;
2972;SDS011;1496;51.404;7.232;2022-12-07T13:12:57;12.43;;;4.77;;
2972;SDS011;1496;51.404;7.232;2022-12-07T13:15:47;8.00;;;5.00;;
2972;SDS011;1496;51.404;7.232;2022-12-07T13:18:24;9.13;;;3.83;;
2972;SDS011;1496;51.404;7.232;2022-12-07T13:26:20;7.27;;;4.00;;
2972;SDS011;1496;51.404;7.232;2022-12-07T13:29:11;6.83;;;4.20;;
2972;SDS011;1496;51.404;7.232;2022-12-07T13:31:51;9.03;;;4.20;;
2972;SDS011;1496;51.404;7.232;2022-12-07T13:34:38;7.83;;;4.40;;
2972;SDS011;1496;51.404;7.232;2022-12-07T13:37:21;7.30;;;4.17;;
2972;SDS011;1496;51.404;7.232;2022-12-07T13:42:25;12.07;;;4.07;;
2972;SDS011;1496;51.404;7.232;2022-12-07T13:44:54;9.80;;;3.93;;
2972;SDS011;1496;51.404;7.232;2022-12-07T13:47:26;8.13;;;4.07;;
2972;SDS011;1496;51.404;7.232;2022-12-07T13:49:55;6.27;;;3.80;;
2972;SDS011;1496;51.404;7.232;2022-12-07T13:52:22;6.27;;;3.23;;
2972;SDS011;1496;51.404;7.232;2022-12-07T13:57:39;7.33;;;3.73;;
2972;SDS011;1496;51.404;7.232;2022-12-07T14:00:14;9.43;;;3.80;;
2972;SDS011;1496;51.404;7.232;2022-12-07T14:02:58;6.70;;;3.63;;
2972;SDS011;1496;51.404;7.232;2022-12-07T14:05:34;9.30;;;3.77;;
2972;SDS011;1496;51.404;7.232;2022-12-07T14:08:02;7.87;;;4.33;;
2972;SDS011;1496;51.404;7.232;2022-12-07T14:10:31;9.13;;;3.83;;
2972;SDS011;1496;51.404;7.232;2022-12-07T14:12:59;10.37;;;4.07;;
2972;SDS011;1496;51.404;7.232;2022-12-07T14:15:27;6.73;;;3.33;;
2972;SDS011;1496;51.404;7.232;2022-12-07T14:17:55;7.43;;;4.30;;
2972;SDS011;1496;51.404;7.232;2022-12-07T14:20:29;9.30;;;4.80;;
2972;SDS011;1496;51.404;7.232;2022-12-07T14:22:56;15.73;;;4.03;;
2972;SDS011;1496;51.404;7.232;2022-12-07T14:25:23;6.10;;;3.90;;
2972;SDS011;1496;51.404;7.232;2022-12-07T14:30:25;10.70;;;4.60;;
2972;SDS011;1496;51.404;7.232;2022-12-07T14:32:57;12.97;;;5.47;;
2972;SDS011;1496;51.404;7.232;2022-12-07T14:35:25;6.80;;;3.03;;
2972;SDS011;1496;51.404;7.232;2022-12-07T14:37:52;8.17;;;3.73;;
2972;SDS011;1496;51.404;7.232;2022-12-07T14:40:22;6.67;;;2.83;;
2972;SDS011;1496;51.404;7.232;2022-12-07T14:43:11;11.87;;;3.33;;
2972;SDS011;1496;51.404;7.232;2022-12-07T14:45:39;9.37;;;3.30;;
2972;SDS011;1496;51.404;7.232;2022-12-07T14:48:05;10.23;;;3.07;;
2972;SDS011;1496;51.404;7.232;2022-12-07T14:50:41;11.53;;;3.10;;
2972;SDS011;1496;51.404;7.232;2022-12-07T14:53:15;10.63;;;3.30;;
2972;SDS011;1496;51.404;7.232;2022-12-07T14:55:43;7.90;;;2.80;;
2972;SDS011;1496;51.404;7.232;2022-12-07T14:58:12;6.90;;;2.77;;
2972;SDS011;1496;51.404;7.232;2022-12-07T15:00:39;9.40;;;3.30;;
2972;SDS011;1496;51.404;7.232;2022-12-07T15:03:05;10.70;;;3.07;;
2972;SDS011;1496;51.404;7.232;2022-12-07T15:05:31;7.50;;;3.13;;
2972;SDS011;1496;51.404;7.232;2022-12-07T15:07:58;8.70;;;3.57;;
2972;SDS011;1496;51.404;7.232;2022-12-07T15:10:28;9.93;;;3.40;;
2972;SDS011;1496;51.404;7.232;2022-12-07T15:12:57;10.73;;;4.33;;
2972;SDS011;1496;51.404;7.232;2022-12-07T15:15:55;12.93;;;3.97;;
2972;SDS011;1496;51.404;7.232;2022-12-07T15:18:24;10.23;;;3.60;;
2972;SDS011;1496;51.404;7.232;2022-12-07T15:20:49;8.73;;;3.20;;
2972;SDS011;1496;51.404;7.232;2022-12-07T15:23:15;7.43;;;3.27;;
2972;SDS011;1496;51.404;7.232;2022-12-07T15:25:41;9.23;;;3.30;;
2972;SDS011;1496;51.404;7.232;2022-12-07T15:28:11;10.63;;;4.57;;
2972;SDS011;1496;51.404;7.232;2022-12-07T15:30:38;15.30;;;3.10;;
2972;SDS011;1496;51.404;7.232;2022-12-07T15:33:03;18.13;;;3.30;;
2972;SDS011;1496;51.404;7.232;2022-12-07T15:35:43;10.00;;;3.83;;
2972;SDS011;1496;51.404;7.232;2022-12-07T15:38:12;13.80;;;3.40;;
2972;SDS011;1496;51.404;7.232;2022-12-07T15:40:38;10.27;;;3.33;;
2972;SDS011;1496;51.404;7.232;2022-12-07T15:43:03;12.43;;;3.87;;
2972;SDS011;1496;51.404;7.232;2022-12-07T15:45:29;7.80;;;3.33;;
2972;SDS011;1496;51.404;7.232;2022-12-07T15:47:55;8.60;;;3.40;;
2972;SDS011;1496;51.404;7.232;2022-12-07T15:50:21;9.10;;;3.90;;
2972;SDS011;1496;51.404;7.232;2022-12-07T15:52:47;18.03;;;3.53;;
2972;SDS011;1496;51.404;7.232;2022-12-07T15:55:19;8.37;;;3.90;;
2972;SDS011;1496;51.404;7.232;2022-12-07T15:57:45;10.90;;;3.93;;
2972;SDS011;1496;51.404;7.232;2022-12-07T16:00:11;16.47;;;4.33;;
2972;SDS011;1496;51.404;7.232;2022-12-07T16:02:37;11.33;;;4.67;;
2972;SDS011;1496;51.404;7.232;2022-12-07T16:05:03;9.60;;;4.03;;
2972;SDS011;1496;51.404;7.232;2022-12-07T16:07:29;8.57;;;4.17;;
2972;SDS011;1496;51.404;7.232;2022-12-07T16:09:54;11.83;;;3.97;;
2972;SDS011;1496;51.404;7.232;2022-12-07T16:12:20;11.57;;;4.00;;
2972;SDS011;1496;51.404;7.232;2022-12-07T16:14:46;10.80;;;4.13;;
2972;SDS011;1496;51.404;7.232;2022-12-07T16:17:12;8.17;;;4.43;;
2972;SDS011;1496;51.404;7.232;2022-12-07T16:19:38;8.13;;;3.63;;
2972;SDS011;1496;51.404;7.232;2022-12-07T16:22:04;9.70;;;4.20;;
2972;SDS011;1496;51.404;7.232;2022-12-07T16:24:30;11.47;;;5.73;;
2972;SDS011;1496;51.404;7.232;2022-12-07T16:26:56;8.90;;;4.00;;
2972;SDS011;1496;51.404;7.232;2022-12-07T16:29:22;9.23;;;4.70;;
2972;SDS011;1496;51.404;7.232;2022-12-07T16:31:48;10.60;;;4.37;;
2972;SDS011;1496;51.404;7.232;2022-12-07T16:34:16;7.20;;;4.53;;
2972;SDS011;1496;51.404;7.232;2022-12-07T16:36:41;8.40;;;4.20;;
2972;SDS011;1496;51.404;7.232;2022-12-07T16:39:08;9.07;;;4.67;;
2972;SDS011;1496;51.404;7.232;2022-12-07T16:41:34;6.20;;;4.57;;
2972;SDS011;1496;51.404;7.232;2022-12-07T16:44:02;9.30;;;4.90;;
2972;SDS011;1496;51.404;7.232;2022-12-07T16:46:33;11.77;;;4.70;;
2972;SDS011;1496;51.404;7.232;2022-12-07T16:49:00;18.57;;;4.60;;
2972;SDS011;1496;51.404;7.232;2022-12-07T16:51:26;6.30;;;4.13;;
2972;SDS011;1496;51.404;7.232;2022-12-07T16:53:52;16.90;;;5.00;;
2972;SDS011;1496;51.404;7.232;2022-12-07T16:56:18;13.07;;;5.10;;
2972;SDS011;1496;51.404;7.232;2022-12-07T16:58:45;8.43;;;4.50;;
2972;SDS011;1496;51.404;7.232;2022-12-07T17:03:53;11.03;;;5.03;;